createdAt,value
2022-12-08T00:01:41.940Z,69.89
2022-12-08T00:04:08.903Z,69.41
2022-12-08T00:06:37.392Z,69.33
2022-12-08T00:09:04.397Z,69.23
2022-12-08T00:11:31.287Z,68.94
2022-12-08T00:13:58.327Z,70.16
2022-12-08T00:16:25.303Z,70.62
2022-12-08T00:18:52.281Z,71.95
2022-12-08T00:21:19.106Z,72.77
2022-12-08T00:23:46.036Z,71.46
2022-12-08T00:26:12.870Z,70.34
2022-12-08T00:28:39.719Z,70.36
2022-12-08T00:31:11.503Z,70.35
2022-12-08T00:33:39.203Z,71.45
2022-12-08T00:36:10.869Z,70.46
2022-12-08T00:38:38.598Z,70.49
2022-12-08T00:41:12.116Z,73.24
2022-12-08T00:43:39.093Z,72.59
2022-12-08T00:46:06.199Z,71.54
2022-12-08T00:48:33.243Z,71.37
2022-12-08T00:51:00.179Z,72.46
2022-12-08T00:53:27.070Z,74.36
2022-12-08T00:55:53.855Z,74.34
2022-12-08T00:58:20.746Z,74.16
2022-12-08T01:00:47.799Z,72.52
2022-12-08T01:03:15.567Z,71.84
2022-12-08T01:05:42.509Z,71.70
2022-12-08T01:08:09.545Z,71.07
2022-12-08T01:10:36.868Z,71.52
2022-12-08T01:13:04.433Z,72.41
2022-12-08T01:15:31.445Z,73.93
2022-12-08T01:17:58.506Z,73.49
2022-12-08T01:20:25.385Z,72.67
2022-12-08T01:22:52.189Z,73.99
2022-12-08T01:25:19.248Z,74.15
2022-12-08T01:27:46.106Z,74.35
2022-12-08T01:30:13.442Z,75.01
2022-12-08T01:32:40.384Z,75.84
2022-12-08T01:35:07.476Z,75.25
2022-12-08T01:37:34.426Z,73.44
2022-12-08T01:40:01.677Z,72.79
2022-12-08T01:42:29.010Z,72.11
2022-12-08T01:45:00.522Z,71.92
2022-12-08T01:47:33.384Z,72.74
2022-12-08T01:50:00.912Z,73.32
2022-12-08T01:52:36.865Z,72.86
2022-12-08T01:55:12.961Z,74.07
2022-12-08T01:57:47.581Z,74.61
2022-12-08T02:00:18.399Z,75.01
2022-12-08T02:03:09.484Z,75.88
2022-12-08T02:05:40.136Z,77.14
2022-12-08T02:08:09.403Z,75.69
2022-12-08T02:10:39.319Z,74.71
2022-12-08T02:13:09.831Z,74.03
2022-12-08T02:15:56.329Z,74.48
2022-12-08T02:18:32.293Z,74.96
2022-12-08T02:21:26.238Z,74.73
2022-12-08T02:24:18.135Z,73.03
2022-12-08T02:27:03.434Z,72.44
2022-12-08T02:29:45.367Z,74.88
2022-12-08T02:32:42.482Z,75.45
2022-12-08T02:35:21.886Z,75.50
2022-12-08T02:38:15.033Z,73.80
2022-12-08T02:41:18.149Z,73.76
2022-12-08T02:43:51.309Z,74.73
2022-12-08T02:46:58.372Z,74.76
2022-12-08T02:49:30.209Z,75.20
2022-12-08T02:52:12.278Z,75.14
2022-12-08T02:54:47.516Z,74.81
2022-12-08T02:57:44.434Z,76.02
2022-12-08T03:00:20.511Z,74.30
2022-12-08T03:03:06.122Z,73.58
2022-12-08T03:06:08.807Z,73.35
2022-12-08T03:09:13.093Z,73.36
2022-12-08T03:11:52.164Z,73.72
2022-12-08T03:14:21.936Z,74.75
2022-12-08T03:16:52.909Z,75.67
2022-12-08T03:19:27.457Z,74.90
2022-12-08T03:21:58.091Z,74.56
2022-12-08T03:24:24.898Z,74.30
2022-12-08T03:27:05.984Z,74.50
2022-12-08T03:29:33.328Z,75.54
2022-12-08T03:32:35.423Z,74.73
2022-12-08T03:35:08.139Z,74.06
2022-12-08T03:37:36.741Z,73.24
2022-12-08T03:40:06.421Z,72.47
2022-12-08T03:42:33.513Z,73.15
2022-12-08T03:45:00.340Z,74.36
2022-12-08T03:47:27.231Z,74.01
2022-12-08T03:49:54.109Z,73.34
2022-12-08T03:52:21.006Z,73.40
2022-12-08T03:54:48.190Z,72.96
2022-12-08T03:57:15.064Z,72.15
2022-12-08T03:59:42.024Z,72.40
2022-12-08T04:02:08.910Z,72.35
2022-12-08T04:04:35.922Z,72.53
2022-12-08T04:07:02.868Z,74.49
2022-12-08T04:09:29.757Z,75.01
2022-12-08T04:11:56.709Z,74.50
2022-12-08T04:14:23.582Z,74.51
2022-12-08T04:16:50.457Z,74.13
2022-12-08T04:19:17.458Z,73.73
2022-12-08T04:21:44.298Z,73.34
2022-12-08T04:24:11.260Z,73.39
2022-12-08T04:26:38.124Z,72.94
2022-12-08T04:29:04.977Z,72.41
2022-12-08T04:31:31.984Z,72.57
2022-12-08T04:33:59.226Z,72.25
2022-12-08T04:36:26.123Z,72.49
2022-12-08T04:38:53.029Z,71.90
2022-12-08T04:41:19.967Z,72.47
2022-12-08T04:43:46.898Z,72.38
2022-12-08T04:46:13.827Z,73.20
2022-12-08T04:48:41.682Z,73.09
2022-12-08T04:51:17.813Z,73.04
2022-12-08T04:53:46.905Z,72.80
2022-12-08T04:56:16.706Z,73.95
2022-12-08T04:58:44.304Z,75.06
2022-12-08T05:01:11.713Z,74.55
2022-12-08T05:03:38.842Z,73.67
2022-12-08T05:06:06.079Z,73.72
2022-12-08T05:08:33.699Z,73.48
2022-12-08T05:11:09.071Z,73.85
2022-12-08T05:13:36.030Z,74.71
2022-12-08T05:16:08.704Z,74.73
2022-12-08T05:18:36.824Z,74.53
2022-12-08T05:21:05.341Z,73.83
2022-12-08T05:23:32.521Z,73.53
2022-12-08T05:25:59.872Z,74.09
2022-12-08T05:28:43.487Z,76.35
2022-12-08T05:31:15.574Z,77.94
2022-12-08T05:33:43.173Z,79.81
2022-12-08T05:36:12.883Z,79.61
2022-12-08T05:38:40.601Z,78.87
2022-12-08T05:41:08.238Z,77.28
2022-12-08T05:43:35.778Z,76.96
2022-12-08T05:46:02.946Z,76.47
2022-12-08T05:48:29.941Z,76.21
2022-12-08T05:50:56.816Z,75.68
2022-12-08T05:53:23.730Z,75.99
2022-12-08T05:55:50.610Z,76.62
2022-12-08T05:58:22.437Z,76.30
2022-12-08T06:00:50.896Z,74.87
2022-12-08T06:03:19.467Z,73.94
2022-12-08T06:05:47.602Z,74.46
2022-12-08T06:08:14.756Z,73.58
2022-12-08T06:10:43.734Z,73.07
2022-12-08T06:13:11.278Z,73.32
2022-12-08T06:15:40.118Z,73.90
2022-12-08T06:18:08.235Z,74.34
2022-12-08T06:20:36.525Z,74.24
2022-12-08T06:23:03.409Z,75.37
2022-12-08T06:25:30.588Z,76.39
2022-12-08T06:27:57.545Z,75.92
2022-12-08T06:30:24.482Z,77.48
2022-12-08T06:32:51.366Z,77.80
2022-12-08T06:35:18.298Z,77.52
2022-12-08T06:37:45.115Z,76.24
2022-12-08T06:40:12.444Z,75.73
2022-12-08T06:42:39.401Z,74.56
2022-12-08T06:45:06.785Z,73.68
2022-12-08T06:47:33.688Z,72.72
2022-12-08T06:50:00.852Z,72.61
2022-12-08T06:52:27.826Z,72.32
2022-12-08T06:54:54.838Z,72.42
2022-12-08T06:57:21.858Z,72.13
2022-12-08T06:59:48.665Z,71.49
2022-12-08T07:02:15.747Z,71.92
2022-12-08T07:04:42.575Z,70.36
2022-12-08T07:07:09.714Z,69.58
2022-12-08T07:09:37.019Z,69.95
2022-12-08T07:12:04.557Z,69.07
2022-12-08T07:14:31.350Z,70.33
2022-12-08T07:16:58.418Z,70.76
2022-12-08T07:19:25.209Z,71.63
2022-12-08T07:21:52.101Z,71.95
2022-12-08T07:24:18.908Z,70.73
2022-12-08T07:26:45.794Z,70.16
2022-12-08T07:29:12.749Z,70.50
2022-12-08T07:31:39.528Z,70.05
2022-12-08T07:34:06.544Z,69.22
2022-12-08T07:36:33.758Z,69.41
2022-12-08T07:39:00.725Z,69.61
2022-12-08T07:41:27.546Z,69.32
2022-12-08T07:43:55.615Z,68.03
2022-12-08T07:46:24.087Z,68.37
2022-12-08T07:48:52.245Z,67.44
2022-12-08T07:51:19.491Z,67.28
2022-12-08T07:53:53.767Z,66.99
2022-12-08T07:56:22.640Z,67.11
2022-12-08T07:58:49.584Z,67.58
2022-12-08T08:01:25.843Z,67.10
2022-12-08T08:03:53.725Z,66.42
2022-12-08T08:06:20.609Z,65.95
2022-12-08T08:08:47.654Z,66.38
2022-12-08T08:11:20.778Z,66.71
2022-12-08T08:13:48.628Z,66.79
2022-12-08T08:16:15.683Z,66.62
2022-12-08T08:18:42.756Z,66.02
2022-12-08T08:21:43.165Z,66.08
2022-12-08T08:23:56.807Z,65.93
2022-12-08T08:26:23.745Z,66.76
2022-12-08T08:28:50.579Z,65.38
2022-12-08T08:31:17.629Z,64.79
2022-12-08T08:33:44.555Z,65.10
2022-12-08T08:36:11.527Z,64.97
2022-12-08T08:38:38.542Z,65.16
2022-12-08T08:41:09.619Z,64.75
2022-12-08T08:43:38.569Z,64.10
2022-12-08T08:46:07.211Z,63.22
2022-12-08T08:48:34.180Z,63.40
2022-12-08T08:51:08.675Z,62.64
2022-12-08T08:53:36.094Z,62.84
2022-12-08T08:56:03.214Z,61.87
2022-12-08T08:58:30.045Z,62.57
2022-12-08T09:00:56.909Z,62.88
2022-12-08T09:03:23.686Z,62.89
2022-12-08T09:05:50.800Z,61.83
2022-12-08T09:08:17.863Z,61.72
2022-12-08T09:10:44.863Z,62.05
2022-12-08T09:13:11.652Z,62.42
2022-12-08T09:15:38.729Z,63.08
2022-12-08T09:18:05.980Z,62.58
2022-12-08T09:20:34.463Z,62.10
2022-12-08T09:23:01.946Z,61.69
2022-12-08T09:25:29.602Z,61.81
2022-12-08T09:27:56.424Z,60.82
2022-12-08T09:30:23.490Z,59.76
2022-12-08T09:32:50.359Z,60.64
2022-12-08T09:35:17.258Z,60.36
2022-12-08T09:37:44.209Z,61.04
2022-12-08T09:40:17.586Z,60.05
2022-12-08T09:42:52.446Z,60.07
2022-12-08T09:45:20.274Z,60.70
2022-12-08T09:47:59.602Z,60.71
2022-12-08T09:50:35.576Z,60.33
2022-12-08T09:53:11.650Z,60.95
2022-12-08T09:55:59.475Z,60.94
2022-12-08T09:58:38.304Z,59.31
2022-12-08T10:01:05.193Z,58.59
2022-12-08T10:03:32.121Z,58.55
2022-12-08T10:06:19.597Z,59.64
2022-12-08T10:09:11.126Z,58.83
2022-12-08T10:11:49.869Z,58.70
2022-12-08T10:14:38.875Z,58.56
2022-12-08T10:17:36.397Z,59.42
2022-12-08T10:20:11.093Z,59.92
2022-12-08T10:22:44.351Z,60.51
2022-12-08T10:25:14.620Z,59.98
2022-12-08T10:27:41.545Z,59.90
2022-12-08T10:30:17.907Z,58.43
2022-12-08T10:32:48.321Z,58.89
2022-12-08T10:35:17.346Z,59.00
2022-12-08T10:38:00.796Z,59.09
2022-12-08T10:40:36.104Z,58.95
2022-12-08T10:43:06.183Z,59.54
2022-12-08T10:45:38.673Z,59.23
2022-12-08T10:48:30.455Z,59.37
2022-12-08T10:50:59.353Z,59.34
2022-12-08T10:53:28.747Z,58.73
2022-12-08T10:56:04.488Z,58.29
2022-12-08T10:58:37.062Z,58.72
2022-12-08T11:01:11.400Z,58.53
2022-12-08T11:04:02.323Z,58.43
2022-12-08T11:06:29.192Z,58.67
2022-12-08T11:08:58.696Z,57.87
2022-12-08T11:11:47.478Z,57.99
2022-12-08T11:14:46.332Z,59.05
2022-12-08T11:17:21.826Z,58.28
2022-12-08T11:20:04.928Z,57.15
2022-12-08T11:22:37.634Z,56.98
2022-12-08T11:25:21.146Z,57.00
2022-12-08T11:27:50.331Z,56.75
2022-12-08T11:30:20.208Z,56.82
2022-12-08T11:32:50.155Z,56.48
2022-12-08T11:35:38.925Z,54.13
2022-12-08T11:38:30.920Z,54.72
2022-12-08T11:41:21.424Z,53.28
2022-12-08T11:44:12.978Z,52.79
2022-12-08T11:47:14.873Z,53.02
2022-12-08T11:49:43.184Z,53.88
2022-12-08T11:52:32.700Z,54.46
2022-12-08T11:55:21.085Z,55.02
2022-12-08T11:57:49.146Z,54.14
2022-12-08T12:00:17.800Z,54.49
2022-12-08T12:02:53.497Z,54.69
2022-12-08T12:08:54.326Z,54.82
2022-12-08T12:11:32.509Z,54.59
2022-12-08T12:14:38.166Z,54.51
2022-12-08T12:17:08.352Z,54.15
2022-12-08T12:19:39.845Z,55.17
2022-12-08T12:22:17.032Z,55.63
2022-12-08T12:24:48.295Z,55.68
2022-12-08T12:27:15.198Z,55.69
2022-12-08T12:29:56.419Z,54.76
2022-12-08T12:32:24.632Z,55.34
2022-12-08T12:34:55.410Z,55.12
2022-12-08T12:37:36.146Z,55.66
2022-12-08T12:40:06.087Z,56.24
2022-12-08T12:42:46.192Z,56.35
2022-12-08T12:45:16.293Z,57.07
2022-12-08T12:47:58.340Z,56.25
2022-12-08T12:50:34.263Z,56.56
2022-12-08T12:53:03.346Z,56.10
2022-12-08T12:55:57.202Z,56.19
2022-12-08T12:58:30.722Z,56.11
2022-12-08T13:01:12.349Z,56.38
2022-12-08T13:03:44.289Z,56.62
2022-12-08T13:06:14.793Z,56.94
2022-12-08T13:08:51.296Z,56.78
2022-12-08T13:11:18.532Z,56.93
2022-12-08T13:14:04.394Z,56.78
2022-12-08T13:16:38.190Z,56.33
2022-12-08T13:19:14.040Z,56.95
2022-12-08T13:21:41.291Z,57.13
2022-12-08T13:24:10.864Z,57.49
2022-12-08T13:26:48.926Z,57.29
2022-12-08T13:29:26.352Z,58.02
2022-12-08T13:32:00.402Z,57.66
2022-12-08T13:34:36.434Z,59.53
2022-12-08T13:37:12.581Z,58.20
2022-12-08T13:39:39.371Z,58.16
2022-12-08T13:42:12.592Z,57.59
2022-12-08T13:57:08.607Z,58.30
2022-12-08T13:59:44.559Z,58.04
2022-12-08T14:02:45.298Z,58.36
2022-12-08T14:05:18.551Z,58.04
2022-12-08T14:08:02.717Z,58.38
2022-12-08T14:10:31.735Z,58.69
2022-12-08T14:13:03.807Z,58.90
2022-12-08T14:15:37.901Z,58.84
2022-12-08T14:18:06.887Z,58.79
2022-12-08T14:20:57.933Z,59.27
2022-12-08T14:23:22.936Z,59.58
2022-12-08T14:25:49.960Z,59.64
2022-12-08T14:28:16.944Z,59.65
2022-12-08T14:30:44.130Z,59.44
2022-12-08T14:33:16.533Z,60.22
2022-12-08T14:35:49.722Z,60.29
2022-12-08T14:38:19.111Z,60.20
2022-12-08T14:41:02.278Z,61.04
2022-12-08T14:43:30.950Z,61.63
2022-12-08T14:46:01.581Z,61.09
2022-12-08T14:48:31.657Z,61.50
2022-12-08T14:50:58.551Z,62.03
2022-12-08T14:53:26.376Z,62.22
2022-12-08T14:55:53.257Z,63.32
2022-12-08T14:58:29.305Z,63.75
2022-12-08T15:01:00.719Z,63.75
2022-12-08T15:03:31.485Z,63.95
2022-12-08T15:06:03.280Z,64.46
2022-12-08T15:08:31.830Z,64.13
2022-12-08T15:11:30.323Z,63.74
2022-12-08T15:13:57.153Z,62.71
2022-12-08T15:16:43.903Z,63.88
2022-12-08T15:19:18.805Z,64.54
2022-12-08T15:21:46.690Z,63.99
2022-12-08T15:24:15.340Z,63.41
2022-12-08T15:26:46.317Z,63.77
2022-12-08T15:29:26.863Z,64.17
2022-12-08T15:31:57.350Z,65.18
2022-12-08T15:34:24.942Z,65.58
2022-12-08T15:36:53.812Z,65.38
2022-12-08T15:39:37.841Z,65.45
2022-12-08T15:42:10.750Z,65.06
2022-12-08T15:44:37.578Z,65.40
2022-12-08T15:47:04.825Z,65.44
2022-12-08T15:49:31.716Z,65.18
2022-12-08T15:52:10.586Z,64.22
2022-12-08T15:54:38.211Z,64.82
2022-12-08T15:57:22.191Z,64.62
2022-12-08T15:59:53.631Z,65.22
2022-12-08T16:02:22.786Z,65.47
2022-12-08T16:07:37.641Z,65.96
2022-12-08T16:10:07.474Z,66.13
2022-12-08T16:13:19.913Z,66.17
2022-12-08T16:18:26.398Z,66.31
2022-12-08T16:23:43.470Z,65.80
2022-12-08T16:26:49.102Z,64.69
2022-12-08T16:29:10.105Z,64.30
2022-12-08T16:31:37.214Z,63.89
2022-12-08T16:34:04.026Z,63.95
2022-12-08T16:36:31.126Z,63.94
2022-12-08T16:38:58.288Z,63.98
2022-12-08T16:41:25.233Z,63.73
2022-12-08T16:43:52.757Z,63.01
2022-12-08T16:46:21.447Z,63.26
2022-12-08T16:48:48.427Z,63.16
2022-12-08T16:51:22.001Z,62.80
2022-12-08T16:53:52.442Z,63.08
2022-12-08T16:56:20.883Z,62.75
2022-12-08T16:58:48.258Z,63.49
2022-12-08T17:01:17.523Z,65.01
2022-12-08T17:04:01.414Z,65.98
2022-12-08T17:06:33.520Z,66.10
2022-12-08T17:09:00.931Z,65.25
2022-12-08T17:11:27.850Z,64.77
2022-12-08T17:13:54.774Z,64.68
2022-12-08T17:16:22.054Z,64.22
2022-12-08T17:18:49.118Z,64.14
2022-12-08T17:21:17.853Z,63.76
2022-12-08T17:23:45.553Z,63.16
2022-12-08T17:26:14.332Z,63.81
2022-12-08T17:28:59.882Z,63.05
2022-12-08T17:31:30.187Z,62.98
2022-12-08T17:34:02.516Z,63.28
2022-12-08T17:36:29.942Z,62.78
2022-12-08T17:38:58.616Z,63.26
2022-12-08T17:41:25.678Z,64.94
2022-12-08T17:43:52.502Z,65.73
2022-12-08T17:46:20.470Z,65.19
2022-12-08T17:48:47.749Z,65.47
2022-12-08T17:51:15.362Z,64.45
2022-12-08T17:53:42.688Z,64.13
2022-12-08T17:56:21.343Z,63.43
2022-12-08T17:58:54.299Z,63.17
2022-12-08T18:01:23.139Z,64.10
2022-12-08T18:03:50.489Z,63.58
2022-12-08T18:06:17.587Z,64.44
2022-12-08T18:08:45.213Z,65.52
2022-12-08T18:11:19.013Z,64.70
2022-12-08T18:13:48.154Z,66.09
2022-12-08T18:16:17.270Z,65.14
2022-12-08T18:18:44.309Z,64.83
2022-12-08T18:21:12.375Z,65.09
2022-12-08T18:23:41.446Z,64.75
2022-12-08T18:26:10.364Z,64.70
2022-12-08T18:28:37.962Z,65.79
2022-12-08T18:31:17.187Z,64.83
2022-12-08T18:33:45.607Z,67.02
2022-12-08T18:36:24.048Z,66.07
2022-12-08T18:38:52.195Z,65.87
2022-12-08T18:41:23.055Z,64.98
2022-12-08T18:43:50.188Z,64.69
2022-12-08T18:46:17.317Z,65.33
2022-12-08T18:48:47.070Z,65.31
2022-12-08T18:51:16.822Z,65.32
2022-12-08T18:53:44.614Z,64.72
2022-12-08T18:56:41.013Z,64.77
2022-12-08T18:59:11.487Z,64.78
2022-12-08T19:01:39.953Z,64.93
2022-12-08T19:06:57.788Z,65.16
2022-12-08T19:09:25.098Z,65.07
2022-12-08T19:11:55.650Z,65.11
2022-12-08T19:14:28.596Z,65.55
2022-12-08T19:16:56.399Z,65.46
2022-12-08T19:19:24.201Z,65.44
2022-12-08T19:21:51.331Z,65.74
2022-12-08T19:24:18.417Z,65.67
2022-12-08T19:26:45.908Z,66.95
2022-12-08T19:29:13.224Z,67.08
2022-12-08T19:31:40.884Z,67.16
2022-12-08T19:34:08.818Z,68.72
2022-12-08T19:36:38.726Z,70.16
2022-12-08T19:39:05.762Z,69.13
2022-12-08T19:41:33.244Z,67.66
2022-12-08T19:44:00.236Z,67.23
2022-12-08T19:46:27.297Z,66.53
2022-12-08T19:48:54.306Z,65.96
2022-12-08T19:51:21.262Z,66.25
2022-12-08T19:53:48.251Z,66.49
2022-12-08T19:56:15.099Z,69.13
2022-12-08T19:58:42.046Z,69.46
2022-12-08T20:01:09.157Z,68.55
2022-12-08T20:03:36.218Z,67.99
2022-12-08T20:06:04.567Z,67.88
2022-12-08T20:08:31.439Z,67.67
2022-12-08T20:10:58.532Z,70.18
2022-12-08T20:13:25.479Z,71.71
2022-12-08T20:15:53.354Z,71.20
2022-12-08T20:18:21.102Z,71.66
2022-12-08T20:20:48.317Z,70.80
2022-12-08T20:23:16.637Z,69.98
2022-12-08T20:25:45.478Z,70.78
2022-12-08T20:28:12.635Z,73.22
2022-12-08T20:30:41.247Z,75.46
2022-12-08T20:33:08.348Z,75.77
2022-12-08T20:35:35.211Z,75.00
2022-12-08T20:38:02.239Z,73.49
2022-12-08T20:40:29.259Z,71.94
2022-12-08T20:42:56.454Z,71.27
2022-12-08T20:45:23.338Z,70.59
2022-12-08T20:47:50.409Z,70.44
2022-12-08T20:50:17.485Z,69.59
2022-12-08T20:52:44.543Z,69.62
2022-12-08T20:55:11.474Z,69.38
2022-12-08T20:57:38.685Z,69.71
2022-12-08T21:00:07.506Z,69.00
2022-12-08T21:02:34.941Z,68.47
2022-12-08T21:05:02.082Z,69.70
2022-12-08T21:07:29.550Z,69.95
2022-12-08T21:09:56.605Z,69.34
2022-12-08T21:12:23.675Z,69.61
2022-12-08T21:14:51.145Z,68.57
2022-12-08T21:17:18.318Z,68.43
2022-12-08T21:19:45.630Z,69.12
2022-12-08T21:22:12.532Z,68.72
2022-12-08T21:24:39.500Z,69.39
2022-12-08T21:27:06.440Z,68.73
2022-12-08T21:29:33.361Z,70.42
2022-12-08T21:32:00.328Z,69.90
2022-12-08T21:34:28.161Z,70.06
2022-12-08T21:36:55.025Z,69.52
2022-12-08T21:39:22.252Z,70.32
2022-12-08T21:41:49.331Z,73.00
2022-12-08T21:44:17.452Z,73.32
2022-12-08T21:46:44.634Z,73.11
2022-12-08T21:49:11.697Z,71.83
2022-12-08T21:51:38.604Z,71.42
2022-12-08T21:54:05.584Z,70.68
2022-12-08T21:56:32.969Z,70.06
2022-12-08T21:58:59.952Z,69.12
2022-12-08T22:01:27.175Z,68.70
2022-12-08T22:03:54.407Z,68.68
2022-12-08T22:06:21.718Z,68.68
2022-12-08T22:08:48.786Z,69.17
2022-12-08T22:11:15.855Z,69.66
2022-12-08T22:13:42.869Z,70.06
2022-12-08T22:16:12.837Z,69.29
2022-12-08T22:18:40.100Z,69.45
2022-12-08T22:21:14.959Z,69.99
2022-12-08T22:23:42.913Z,70.85
2022-12-08T22:26:11.108Z,70.98
2022-12-08T22:28:41.568Z,70.40
2022-12-08T22:31:17.413Z,70.23
2022-12-08T22:33:44.782Z,69.73
2022-12-08T22:36:16.045Z,69.24
2022-12-08T22:38:43.250Z,69.75
2022-12-08T22:41:10.154Z,69.57
2022-12-08T22:43:37.922Z,69.63
2022-12-08T22:46:15.539Z,71.05
2022-12-08T22:48:42.776Z,71.33
2022-12-08T22:51:10.401Z,70.72
2022-12-08T22:53:37.734Z,70.75
2022-12-08T22:56:05.902Z,70.70
2022-12-08T22:58:32.906Z,70.13
2022-12-08T23:00:59.884Z,72.08
2022-12-08T23:03:27.272Z,75.08
2022-12-08T23:05:54.719Z,75.17
2022-12-08T23:08:21.792Z,75.38
2022-12-08T23:10:51.120Z,74.09
2022-12-08T23:13:18.614Z,74.18
2022-12-08T23:15:45.981Z,72.63
2022-12-08T23:18:18.074Z,71.66
2022-12-08T23:20:45.944Z,71.25
2022-12-08T23:23:13.713Z,71.67
2022-12-08T23:25:43.927Z,72.40
2022-12-08T23:28:12.911Z,73.21
2022-12-08T23:30:40.783Z,72.35
2022-12-08T23:33:07.909Z,71.88
2022-12-08T23:35:35.349Z,72.47
2022-12-08T23:38:02.504Z,71.20
2022-12-08T23:40:29.567Z,70.88
2022-12-08T23:42:56.581Z,71.40
2022-12-08T23:45:23.706Z,71.42
2022-12-08T23:47:50.747Z,71.33
2022-12-08T23:50:17.830Z,72.27
2022-12-08T23:52:45.566Z,73.54
2022-12-08T23:55:12.635Z,75.27
2022-12-08T23:57:39.644Z,74.34
